sensor_id;sensor_type;location;lat;lon;timestamp;P1;durP1;ratioP1;P2;durP2;ratioP2
31033;SDS011;59145;49.342;7.022;2022-09-17T00:00:09;2.23;;;2.00;;
31033;SDS011;59145;49.342;7.022;2022-09-17T00:02:34;2.47;;;1.92;;
31033;SDS011;59145;49.342;7.022;2022-09-17T00:04:59;1.97;;;1.83;;
31033;SDS011;59145;49.342;7.022;2022-09-17T00:07:26;2.40;;;1.80;;
31033;SDS011;59145;49.342;7.022;2022-09-17T00:09:52;2.65;;;1.70;;
31033;SDS011;59145;49.342;7.022;2022-09-17T00:12:17;1.90;;;1.80;;
31033;SDS011;59145;49.342;7.022;2022-09-17T00:14:42;1.80;;;1.70;;
31033;SDS011;59145;49.342;7.022;2022-09-17T00:17:08;1.90;;;1.80;;
31033;SDS011;59145;49.342;7.022;2022-09-17T00:19:33;2.33;;;1.97;;
31033;SDS011;59145;49.342;7.022;2022-09-17T00:21:58;2.30;;;2.03;;
31033;SDS011;59145;49.342;7.022;2022-09-17T00:24:25;2.30;;;2.10;;
31033;SDS011;59145;49.342;7.022;2022-09-17T00:26:50;2.50;;;2.30;;
31033;SDS011;59145;49.342;7.022;2022-09-17T00:29:16;2.88;;;2.30;;
31033;SDS011;59145;49.342;7.022;2022-09-17T00:31:41;3.30;;;2.15;;
31033;SDS011;59145;49.342;7.022;2022-09-17T00:34:07;2.92;;;2.63;;
31033;SDS011;59145;49.342;7.022;2022-09-17T00:36:33;2.42;;;2.22;;
31033;SDS011;59145;49.342;7.022;2022-09-17T00:38:59;2.55;;;2.35;;
31033;SDS011;59145;49.342;7.022;2022-09-17T00:41:26;2.70;;;2.42;;
31033;SDS011;59145;49.342;7.022;2022-09-17T00:43:52;2.70;;;2.20;;
31033;SDS011;59145;49.342;7.022;2022-09-17T00:46:21;2.80;;;2.28;;
31033;SDS011;59145;49.342;7.022;2022-09-17T00:48:48;5.35;;;2.45;;
31033;SDS011;59145;49.342;7.022;2022-09-17T00:51:14;2.60;;;2.40;;
31033;SDS011;59145;49.342;7.022;2022-09-17T00:53:41;3.30;;;2.30;;
31033;SDS011;59145;49.342;7.022;2022-09-17T00:56:08;3.30;;;2.75;;
31033;SDS011;59145;49.342;7.022;2022-09-17T00:58:35;2.72;;;2.30;;
31033;SDS011;59145;49.342;7.022;2022-09-17T01:01:02;2.85;;;2.60;;
31033;SDS011;59145;49.342;7.022;2022-09-17T01:03:27;4.20;;;2.42;;
31033;SDS011;59145;49.342;7.022;2022-09-17T01:05:55;3.08;;;2.50;;
31033;SDS011;59145;49.342;7.022;2022-09-17T01:08:23;5.38;;;2.85;;
31033;SDS011;59145;49.342;7.022;2022-09-17T01:11:00;3.58;;;2.85;;
31033;SDS011;59145;49.342;7.022;2022-09-17T01:13:32;4.65;;;2.95;;
31033;SDS011;59145;49.342;7.022;2022-09-17T01:16:04;3.05;;;2.80;;
31033;SDS011;59145;49.342;7.022;2022-09-17T01:18:35;3.92;;;2.90;;
31033;SDS011;59145;49.342;7.022;2022-09-17T01:21:26;4.32;;;3.17;;
31033;SDS011;59145;49.342;7.022;2022-09-17T01:24:00;5.93;;;3.15;;
31033;SDS011;59145;49.342;7.022;2022-09-17T01:26:39;4.85;;;3.72;;
31033;SDS011;59145;49.342;7.022;2022-09-17T01:29:12;4.68;;;3.05;;
31033;SDS011;59145;49.342;7.022;2022-09-17T01:31:42;4.75;;;2.80;;
31033;SDS011;59145;49.342;7.022;2022-09-17T01:34:11;5.88;;;3.08;;
31033;SDS011;59145;49.342;7.022;2022-09-17T01:36:41;3.58;;;3.10;;
31033;SDS011;59145;49.342;7.022;2022-09-17T01:39:11;3.85;;;2.67;;
31033;SDS011;59145;49.342;7.022;2022-09-17T01:41:40;3.70;;;3.05;;
31033;SDS011;59145;49.342;7.022;2022-09-17T01:44:09;5.43;;;3.03;;
31033;SDS011;59145;49.342;7.022;2022-09-17T01:46:35;5.13;;;2.58;;
31033;SDS011;59145;49.342;7.022;2022-09-17T01:49:04;2.95;;;2.28;;
31033;SDS011;59145;49.342;7.022;2022-09-17T01:51:33;5.95;;;3.00;;
31033;SDS011;59145;49.342;7.022;2022-09-17T01:54:01;3.13;;;2.50;;
31033;SDS011;59145;49.342;7.022;2022-09-17T01:56:30;5.10;;;2.53;;
31033;SDS011;59145;49.342;7.022;2022-09-17T01:58:58;2.42;;;2.10;;
31033;SDS011;59145;49.342;7.022;2022-09-17T02:01:25;6.88;;;2.60;;
31033;SDS011;59145;49.342;7.022;2022-09-17T02:03:53;4.35;;;3.22;;
31033;SDS011;59145;49.342;7.022;2022-09-17T02:06:24;4.93;;;2.50;;
31033;SDS011;59145;49.342;7.022;2022-09-17T02:08:52;2.95;;;2.30;;
31033;SDS011;59145;49.342;7.022;2022-09-17T02:11:18;2.97;;;2.78;;
31033;SDS011;59145;49.342;7.022;2022-09-17T02:13:46;2.70;;;2.50;;
31033;SDS011;59145;49.342;7.022;2022-09-17T02:16:12;2.72;;;2.53;;
31033;SDS011;59145;49.342;7.022;2022-09-17T02:18:42;3.13;;;2.63;;
31033;SDS011;59145;49.342;7.022;2022-09-17T02:21:10;3.20;;;2.75;;
31033;SDS011;59145;49.342;7.022;2022-09-17T02:23:40;2.90;;;2.50;;
31033;SDS011;59145;49.342;7.022;2022-09-17T02:26:08;4.13;;;2.80;;
31033;SDS011;59145;49.342;7.022;2022-09-17T02:28:35;2.95;;;2.50;;
31033;SDS011;59145;49.342;7.022;2022-09-17T02:31:03;2.88;;;2.60;;
31033;SDS011;59145;49.342;7.022;2022-09-17T02:33:29;3.88;;;3.03;;
31033;SDS011;59145;49.342;7.022;2022-09-17T02:35:55;4.53;;;3.13;;
31033;SDS011;59145;49.342;7.022;2022-09-17T02:38:21;4.57;;;3.30;;
31033;SDS011;59145;49.342;7.022;2022-09-17T02:40:50;3.40;;;3.10;;
31033;SDS011;59145;49.342;7.022;2022-09-17T02:43:20;2.83;;;2.63;;
31033;SDS011;59145;49.342;7.022;2022-09-17T02:45:51;2.75;;;2.55;;
31033;SDS011;59145;49.342;7.022;2022-09-17T02:50:53;5.07;;;3.20;;
31033;SDS011;59145;49.342;7.022;2022-09-17T02:53:28;2.80;;;2.40;;
31033;SDS011;59145;49.342;7.022;2022-09-17T02:55:58;2.67;;;2.30;;
31033;SDS011;59145;49.342;7.022;2022-09-17T02:58:27;4.13;;;2.78;;
31033;SDS011;59145;49.342;7.022;2022-09-17T03:00:54;5.05;;;3.15;;
31033;SDS011;59145;49.342;7.022;2022-09-17T03:03:22;2.78;;;2.58;;
31033;SDS011;59145;49.342;7.022;2022-09-17T03:05:50;3.15;;;2.90;;
31033;SDS011;59145;49.342;7.022;2022-09-17T03:08:16;3.33;;;2.88;;
31033;SDS011;59145;49.342;7.022;2022-09-17T03:10:44;2.67;;;2.47;;
31033;SDS011;59145;49.342;7.022;2022-09-17T03:13:11;3.55;;;3.05;;
31033;SDS011;59145;49.342;7.022;2022-09-17T03:15:36;4.18;;;3.60;;
31033;SDS011;59145;49.342;7.022;2022-09-17T03:18:01;3.80;;;3.40;;
31033;SDS011;59145;49.342;7.022;2022-09-17T03:20:26;6.20;;;3.20;;
31033;SDS011;59145;49.342;7.022;2022-09-17T03:22:52;4.55;;;3.00;;
31033;SDS011;59145;49.342;7.022;2022-09-17T03:25:17;3.07;;;2.70;;
31033;SDS011;59145;49.342;7.022;2022-09-17T03:27:42;2.42;;;2.20;;
31033;SDS011;59145;49.342;7.022;2022-09-17T03:30:09;2.40;;;2.20;;
31033;SDS011;59145;49.342;7.022;2022-09-17T03:32:35;2.17;;;2.00;;
31033;SDS011;59145;49.342;7.022;2022-09-17T03:35:00;2.13;;;1.83;;
31033;SDS011;59145;49.342;7.022;2022-09-17T03:37:25;2.10;;;2.00;;
31033;SDS011;59145;49.342;7.022;2022-09-17T03:39:51;4.47;;;2.20;;
31033;SDS011;59145;49.342;7.022;2022-09-17T03:42:16;2.80;;;2.60;;
31033;SDS011;59145;49.342;7.022;2022-09-17T03:44:42;4.05;;;2.70;;
31033;SDS011;59145;49.342;7.022;2022-09-17T03:47:08;2.40;;;2.20;;
31033;SDS011;59145;49.342;7.022;2022-09-17T03:49:34;4.93;;;2.80;;
31033;SDS011;59145;49.342;7.022;2022-09-17T03:51:59;2.60;;;2.40;;
31033;SDS011;59145;49.342;7.022;2022-09-17T03:54:24;2.60;;;2.40;;
31033;SDS011;59145;49.342;7.022;2022-09-17T03:56:50;2.30;;;2.10;;
31033;SDS011;59145;49.342;7.022;2022-09-17T03:59:15;6.47;;;2.67;;
31033;SDS011;59145;49.342;7.022;2022-09-17T04:01:40;3.58;;;2.58;;
31033;SDS011;59145;49.342;7.022;2022-09-17T04:04:07;2.47;;;2.25;;
31033;SDS011;59145;49.342;7.022;2022-09-17T04:06:32;2.95;;;2.45;;
31033;SDS011;59145;49.342;7.022;2022-09-17T04:08:58;4.57;;;2.43;;
31033;SDS011;59145;49.342;7.022;2022-09-17T04:11:25;6.40;;;2.40;;
31033;SDS011;59145;49.342;7.022;2022-09-17T04:13:50;2.78;;;2.40;;
31033;SDS011;59145;49.342;7.022;2022-09-17T04:16:15;5.67;;;2.90;;
31033;SDS011;59145;49.342;7.022;2022-09-17T04:18:40;4.80;;;3.60;;
31033;SDS011;59145;49.342;7.022;2022-09-17T04:21:07;8.13;;;3.77;;
31033;SDS011;59145;49.342;7.022;2022-09-17T04:23:32;5.57;;;2.90;;
31033;SDS011;59145;49.342;7.022;2022-09-17T04:25:58;5.47;;;3.10;;
31033;SDS011;59145;49.342;7.022;2022-09-17T04:28:23;4.22;;;3.05;;
31033;SDS011;59145;49.342;7.022;2022-09-17T04:30:48;3.83;;;2.85;;
31033;SDS011;59145;49.342;7.022;2022-09-17T04:33:14;3.27;;;2.87;;
31033;SDS011;59145;49.342;7.022;2022-09-17T04:35:39;3.35;;;3.05;;
31033;SDS011;59145;49.342;7.022;2022-09-17T04:38:05;3.50;;;3.07;;
31033;SDS011;59145;49.342;7.022;2022-09-17T04:40:31;4.97;;;2.60;;
31033;SDS011;59145;49.342;7.022;2022-09-17T04:42:57;4.28;;;2.90;;
31033;SDS011;59145;49.342;7.022;2022-09-17T04:45:27;3.28;;;2.10;;
31033;SDS011;59145;49.342;7.022;2022-09-17T04:47:53;3.38;;;2.50;;
31033;SDS011;59145;49.342;7.022;2022-09-17T04:50:18;3.50;;;2.40;;
31033;SDS011;59145;49.342;7.022;2022-09-17T04:52:44;2.30;;;2.10;;
31033;SDS011;59145;49.342;7.022;2022-09-17T04:55:11;3.17;;;1.85;;
31033;SDS011;59145;49.342;7.022;2022-09-17T04:57:37;2.20;;;2.00;;
31033;SDS011;59145;49.342;7.022;2022-09-17T05:00:02;2.05;;;1.80;;
31033;SDS011;59145;49.342;7.022;2022-09-17T05:02:27;3.40;;;2.00;;
31033;SDS011;59145;49.342;7.022;2022-09-17T05:04:53;3.90;;;2.47;;
31033;SDS011;59145;49.342;7.022;2022-09-17T05:07:18;2.95;;;1.80;;
31033;SDS011;59145;49.342;7.022;2022-09-17T05:09:43;1.90;;;1.70;;
31033;SDS011;59145;49.342;7.022;2022-09-17T05:12:10;2.85;;;2.08;;
31033;SDS011;59145;49.342;7.022;2022-09-17T05:14:35;3.67;;;2.42;;
31033;SDS011;59145;49.342;7.022;2022-09-17T05:17:00;2.30;;;2.10;;
31033;SDS011;59145;49.342;7.022;2022-09-17T05:19:25;2.00;;;1.87;;
31033;SDS011;59145;49.342;7.022;2022-09-17T05:21:51;3.50;;;2.10;;
31033;SDS011;59145;49.342;7.022;2022-09-17T05:24:16;3.87;;;1.87;;
31033;SDS011;59145;49.342;7.022;2022-09-17T05:26:41;1.70;;;1.60;;
31033;SDS011;59145;49.342;7.022;2022-09-17T05:29:08;1.80;;;1.43;;
31033;SDS011;59145;49.342;7.022;2022-09-17T05:31:33;2.08;;;1.58;;
31033;SDS011;59145;49.342;7.022;2022-09-17T05:33:58;1.77;;;1.67;;
31033;SDS011;59145;49.342;7.022;2022-09-17T05:36:23;2.57;;;2.13;;
31033;SDS011;59145;49.342;7.022;2022-09-17T05:38:49;3.05;;;2.40;;
31033;SDS011;59145;49.342;7.022;2022-09-17T05:41:15;2.35;;;1.90;;
31033;SDS011;59145;49.342;7.022;2022-09-17T05:43:41;2.70;;;2.28;;
31033;SDS011;59145;49.342;7.022;2022-09-17T05:46:08;2.05;;;1.80;;
31033;SDS011;59145;49.342;7.022;2022-09-17T05:48:33;3.65;;;2.10;;
31033;SDS011;59145;49.342;7.022;2022-09-17T05:50:59;3.55;;;2.60;;
31033;SDS011;59145;49.342;7.022;2022-09-17T05:53:24;3.13;;;2.30;;
31033;SDS011;59145;49.342;7.022;2022-09-17T05:55:50;3.40;;;2.30;;
31033;SDS011;59145;49.342;7.022;2022-09-17T05:58:15;2.75;;;2.28;;
31033;SDS011;59145;49.342;7.022;2022-09-17T06:00:41;4.90;;;2.35;;
31033;SDS011;59145;49.342;7.022;2022-09-17T06:03:08;3.20;;;2.58;;
31033;SDS011;59145;49.342;7.022;2022-09-17T06:05:34;6.88;;;3.22;;
31033;SDS011;59145;49.342;7.022;2022-09-17T06:07:59;3.10;;;2.47;;
31033;SDS011;59145;49.342;7.022;2022-09-17T06:10:25;3.22;;;2.42;;
31033;SDS011;59145;49.342;7.022;2022-09-17T06:12:54;1.87;;;1.77;;
31033;SDS011;59145;49.342;7.022;2022-09-17T06:15:19;1.85;;;1.75;;
31033;SDS011;59145;49.342;7.022;2022-09-17T06:17:45;2.70;;;2.47;;
31033;SDS011;59145;49.342;7.022;2022-09-17T06:20:11;3.28;;;2.05;;
31033;SDS011;59145;49.342;7.022;2022-09-17T06:22:37;4.10;;;2.17;;
31033;SDS011;59145;49.342;7.022;2022-09-17T06:25:02;3.28;;;2.38;;
31033;SDS011;59145;49.342;7.022;2022-09-17T06:27:29;2.67;;;1.95;;
31033;SDS011;59145;49.342;7.022;2022-09-17T06:29:54;2.67;;;1.90;;
31033;SDS011;59145;49.342;7.022;2022-09-17T06:32:19;6.00;;;2.50;;
31033;SDS011;59145;49.342;7.022;2022-09-17T06:34:44;3.42;;;2.25;;
31033;SDS011;59145;49.342;7.022;2022-09-17T06:37:11;3.55;;;2.85;;
31033;SDS011;59145;49.342;7.022;2022-09-17T06:39:36;2.63;;;2.42;;
31033;SDS011;59145;49.342;7.022;2022-09-17T06:42:02;3.20;;;2.50;;
31033;SDS011;59145;49.342;7.022;2022-09-17T06:44:27;5.88;;;2.97;;
31033;SDS011;59145;49.342;7.022;2022-09-17T06:46:52;2.83;;;2.57;;
31033;SDS011;59145;49.342;7.022;2022-09-17T06:49:18;2.67;;;2.33;;
31033;SDS011;59145;49.342;7.022;2022-09-17T06:51:43;4.10;;;2.78;;
31033;SDS011;59145;49.342;7.022;2022-09-17T06:54:10;5.18;;;3.72;;
31033;SDS011;59145;49.342;7.022;2022-09-17T06:56:36;5.22;;;4.15;;
31033;SDS011;59145;49.342;7.022;2022-09-17T06:59:01;8.43;;;3.88;;
31033;SDS011;59145;49.342;7.022;2022-09-17T07:01:44;6.35;;;3.20;;
31033;SDS011;59145;49.342;7.022;2022-09-17T07:04:09;6.03;;;3.30;;
31033;SDS011;59145;49.342;7.022;2022-09-17T07:06:34;4.47;;;3.20;;
31033;SDS011;59145;49.342;7.022;2022-09-17T07:08:59;6.10;;;3.37;;
31033;SDS011;59145;49.342;7.022;2022-09-17T07:11:26;5.45;;;3.95;;
31033;SDS011;59145;49.342;7.022;2022-09-17T07:13:53;6.90;;;3.50;;
31033;SDS011;59145;49.342;7.022;2022-09-17T07:16:18;5.45;;;3.08;;
31033;SDS011;59145;49.342;7.022;2022-09-17T07:18:43;6.93;;;3.50;;
31033;SDS011;59145;49.342;7.022;2022-09-17T07:21:09;3.70;;;2.87;;
31033;SDS011;59145;49.342;7.022;2022-09-17T07:23:34;3.33;;;2.92;;
31033;SDS011;59145;49.342;7.022;2022-09-17T07:26:01;3.92;;;3.30;;
31033;SDS011;59145;49.342;7.022;2022-09-17T07:28:28;7.45;;;3.60;;
31033;SDS011;59145;49.342;7.022;2022-09-17T07:30:54;4.10;;;2.72;;
31033;SDS011;59145;49.342;7.022;2022-09-17T07:33:20;8.77;;;4.90;;
31033;SDS011;59145;49.342;7.022;2022-09-17T07:35:52;5.28;;;3.00;;
31033;SDS011;59145;49.342;7.022;2022-09-17T07:38:17;4.50;;;2.83;;
31033;SDS011;59145;49.342;7.022;2022-09-17T07:40:42;5.13;;;2.37;;
31033;SDS011;59145;49.342;7.022;2022-09-17T07:43:08;3.95;;;2.40;;
31033;SDS011;59145;49.342;7.022;2022-09-17T07:45:35;2.45;;;2.25;;
31033;SDS011;59145;49.342;7.022;2022-09-17T07:48:00;2.45;;;2.25;;
31033;SDS011;59145;49.342;7.022;2022-09-17T07:50:26;5.03;;;2.28;;
31033;SDS011;59145;49.342;7.022;2022-09-17T07:52:51;4.50;;;2.15;;
31033;SDS011;59145;49.342;7.022;2022-09-17T07:55:16;4.00;;;2.17;;
31033;SDS011;59145;49.342;7.022;2022-09-17T07:57:41;5.20;;;2.40;;
31033;SDS011;59145;49.342;7.022;2022-09-17T08:00:07;4.47;;;2.45;;
31033;SDS011;59145;49.342;7.022;2022-09-17T08:02:34;2.20;;;1.90;;
31033;SDS011;59145;49.342;7.022;2022-09-17T08:04:59;3.38;;;2.10;;
31033;SDS011;59145;49.342;7.022;2022-09-17T08:07:25;6.23;;;2.67;;
31033;SDS011;59145;49.342;7.022;2022-09-17T08:09:50;5.43;;;2.50;;
31033;SDS011;59145;49.342;7.022;2022-09-17T08:12:15;8.07;;;2.67;;
31033;SDS011;59145;49.342;7.022;2022-09-17T08:14:42;4.18;;;2.08;;
31033;SDS011;59145;49.342;7.022;2022-09-17T08:17:07;4.10;;;2.03;;
31033;SDS011;59145;49.342;7.022;2022-09-17T08:19:34;1.80;;;1.60;;
31033;SDS011;59145;49.342;7.022;2022-09-17T08:21:59;2.25;;;1.95;;
31033;SDS011;59145;49.342;7.022;2022-09-17T08:24:25;4.15;;;2.10;;
31033;SDS011;59145;49.342;7.022;2022-09-17T08:26:50;4.22;;;1.95;;
31033;SDS011;59145;49.342;7.022;2022-09-17T08:29:16;4.00;;;1.95;;
31033;SDS011;59145;49.342;7.022;2022-09-17T08:31:41;4.03;;;2.00;;
31033;SDS011;59145;49.342;7.022;2022-09-17T08:34:07;2.37;;;1.80;;
31033;SDS011;59145;49.342;7.022;2022-09-17T08:36:34;2.72;;;2.08;;
31033;SDS011;59145;49.342;7.022;2022-09-17T08:38:59;3.88;;;2.20;;
31033;SDS011;59145;49.342;7.022;2022-09-17T08:41:27;5.53;;;2.40;;
31033;SDS011;59145;49.342;7.022;2022-09-17T08:43:57;5.50;;;2.65;;
31033;SDS011;59145;49.342;7.022;2022-09-17T08:46:26;5.90;;;2.70;;
31033;SDS011;59145;49.342;7.022;2022-09-17T08:48:52;4.55;;;2.28;;
31033;SDS011;59145;49.342;7.022;2022-09-17T08:51:23;2.28;;;1.75;;
31033;SDS011;59145;49.342;7.022;2022-09-17T08:53:55;2.40;;;1.77;;
31033;SDS011;59145;49.342;7.022;2022-09-17T08:56:25;2.70;;;1.73;;
31033;SDS011;59145;49.342;7.022;2022-09-17T08:58:54;2.15;;;1.60;;
31033;SDS011;59145;49.342;7.022;2022-09-17T09:01:23;2.00;;;1.58;;
31033;SDS011;59145;49.342;7.022;2022-09-17T09:04:04;4.10;;;2.00;;
31033;SDS011;59145;49.342;7.022;2022-09-17T09:06:33;4.18;;;1.58;;
31033;SDS011;59145;49.342;7.022;2022-09-17T09:09:02;4.07;;;1.90;;
31033;SDS011;59145;49.342;7.022;2022-09-17T09:11:29;4.85;;;1.67;;
31033;SDS011;59145;49.342;7.022;2022-09-17T09:13:56;2.92;;;1.52;;
31033;SDS011;59145;49.342;7.022;2022-09-17T09:16:22;2.67;;;1.40;;
31033;SDS011;59145;49.342;7.022;2022-09-17T09:18:50;4.45;;;1.98;;
31033;SDS011;59145;49.342;7.022;2022-09-17T09:21:19;3.63;;;1.50;;
31033;SDS011;59145;49.342;7.022;2022-09-17T09:23:51;2.38;;;1.42;;
31033;SDS011;59145;49.342;7.022;2022-09-17T09:26:19;2.55;;;1.30;;
31033;SDS011;59145;49.342;7.022;2022-09-17T09:28:54;2.63;;;1.48;;
31033;SDS011;59145;49.342;7.022;2022-09-17T09:31:31;2.30;;;1.65;;
31033;SDS011;59145;49.342;7.022;2022-09-17T09:34:00;1.73;;;1.23;;
31033;SDS011;59145;49.342;7.022;2022-09-17T09:36:27;3.10;;;1.40;;
31033;SDS011;59145;49.342;7.022;2022-09-17T09:38:53;1.45;;;1.30;;
31033;SDS011;59145;49.342;7.022;2022-09-17T09:41:26;3.80;;;1.20;;
31033;SDS011;59145;49.342;7.022;2022-09-17T09:43:57;2.75;;;1.55;;
31033;SDS011;59145;49.342;7.022;2022-09-17T09:49:18;2.10;;;1.42;;
31033;SDS011;59145;49.342;7.022;2022-09-17T09:51:48;2.67;;;1.83;;
31033;SDS011;59145;49.342;7.022;2022-09-17T09:54:21;3.33;;;1.50;;
31033;SDS011;59145;49.342;7.022;2022-09-17T09:56:54;3.05;;;1.40;;
31033;SDS011;59145;49.342;7.022;2022-09-17T09:59:19;2.45;;;1.40;;
31033;SDS011;59145;49.342;7.022;2022-09-17T10:01:45;1.70;;;1.40;;
31033;SDS011;59145;49.342;7.022;2022-09-17T10:04:14;1.27;;;1.17;;
31033;SDS011;59145;49.342;7.022;2022-09-17T10:06:40;1.42;;;1.20;;
31033;SDS011;59145;49.342;7.022;2022-09-17T10:09:08;2.45;;;1.40;;
31033;SDS011;59145;49.342;7.022;2022-09-17T10:11:34;2.80;;;1.30;;
31033;SDS011;59145;49.342;7.022;2022-09-17T10:14:14;2.28;;;1.50;;
31033;SDS011;59145;49.342;7.022;2022-09-17T10:16:39;2.13;;;1.40;;
31033;SDS011;59145;49.342;7.022;2022-09-17T10:19:11;2.47;;;1.75;;
31033;SDS011;59145;49.342;7.022;2022-09-17T10:21:37;3.33;;;1.95;;
31033;SDS011;59145;49.342;7.022;2022-09-17T10:24:04;4.00;;;1.80;;
31033;SDS011;59145;49.342;7.022;2022-09-17T10:26:34;1.80;;;1.55;;
31033;SDS011;59145;49.342;7.022;2022-09-17T10:29:00;3.22;;;1.98;;
31033;SDS011;59145;49.342;7.022;2022-09-17T10:31:27;4.43;;;2.00;;
31033;SDS011;59145;49.342;7.022;2022-09-17T10:34:11;4.03;;;1.80;;
31033;SDS011;59145;49.342;7.022;2022-09-17T10:36:43;2.90;;;1.88;;
31033;SDS011;59145;49.342;7.022;2022-09-17T10:39:19;4.15;;;2.00;;
31033;SDS011;59145;49.342;7.022;2022-09-17T10:41:54;2.35;;;1.60;;
31033;SDS011;59145;49.342;7.022;2022-09-17T10:44:21;4.07;;;1.95;;
31033;SDS011;59145;49.342;7.022;2022-09-17T10:46:48;5.30;;;1.90;;
31033;SDS011;59145;49.342;7.022;2022-09-17T10:49:17;2.17;;;1.77;;
31033;SDS011;59145;49.342;7.022;2022-09-17T10:51:44;3.80;;;2.05;;
31033;SDS011;59145;49.342;7.022;2022-09-17T10:54:14;1.77;;;1.50;;
31033;SDS011;59145;49.342;7.022;2022-09-17T10:56:46;8.40;;;2.30;;
31033;SDS011;59145;49.342;7.022;2022-09-17T10:59:23;5.00;;;2.10;;
31033;SDS011;59145;49.342;7.022;2022-09-17T11:01:56;9.15;;;1.83;;
31033;SDS011;59145;49.342;7.022;2022-09-17T11:04:27;3.55;;;1.58;;
31033;SDS011;59145;49.342;7.022;2022-09-17T11:07:03;2.35;;;1.73;;
31033;SDS011;59145;49.342;7.022;2022-09-17T11:09:34;4.93;;;2.22;;
31033;SDS011;59145;49.342;7.022;2022-09-17T11:12:05;3.17;;;1.90;;
31033;SDS011;59145;49.342;7.022;2022-09-17T11:14:38;4.53;;;1.83;;
31033;SDS011;59145;49.342;7.022;2022-09-17T11:17:10;4.35;;;2.10;;
31033;SDS011;59145;49.342;7.022;2022-09-17T11:19:39;4.35;;;1.88;;
31033;SDS011;59145;49.342;7.022;2022-09-17T11:22:07;3.83;;;1.70;;
31033;SDS011;59145;49.342;7.022;2022-09-17T11:24:44;4.00;;;1.70;;
31033;SDS011;59145;49.342;7.022;2022-09-17T11:27:16;5.63;;;1.88;;
31033;SDS011;59145;49.342;7.022;2022-09-17T11:29:49;4.18;;;1.85;;
31033;SDS011;59145;49.342;7.022;2022-09-17T11:32:25;3.33;;;1.77;;
31033;SDS011;59145;49.342;7.022;2022-09-17T11:34:57;4.25;;;2.17;;
31033;SDS011;59145;49.342;7.022;2022-09-17T11:37:25;5.78;;;2.30;;
31033;SDS011;59145;49.342;7.022;2022-09-17T11:39:52;2.95;;;1.70;;
31033;SDS011;59145;49.342;7.022;2022-09-17T11:42:20;5.72;;;1.80;;
31033;SDS011;59145;49.342;7.022;2022-09-17T11:44:46;4.30;;;1.98;;
31033;SDS011;59145;49.342;7.022;2022-09-17T11:47:14;3.42;;;1.70;;
31033;SDS011;59145;49.342;7.022;2022-09-17T11:49:44;6.15;;;2.20;;
31033;SDS011;59145;49.342;7.022;2022-09-17T11:52:10;14.52;;;2.58;;
31033;SDS011;59145;49.342;7.022;2022-09-17T11:54:38;5.07;;;2.15;;
31033;SDS011;59145;49.342;7.022;2022-09-17T11:57:05;4.28;;;1.92;;
31033;SDS011;59145;49.342;7.022;2022-09-17T11:59:34;3.95;;;1.60;;
31033;SDS011;59145;49.342;7.022;2022-09-17T12:02:03;3.17;;;1.60;;
31033;SDS011;59145;49.342;7.022;2022-09-17T12:04:31;4.55;;;1.80;;
31033;SDS011;59145;49.342;7.022;2022-09-17T12:07:00;6.38;;;2.15;;
31033;SDS011;59145;49.342;7.022;2022-09-17T12:09:28;4.32;;;1.92;;
31033;SDS011;59145;49.342;7.022;2022-09-17T12:11:58;4.05;;;2.13;;
31033;SDS011;59145;49.342;7.022;2022-09-17T12:14:25;7.00;;;1.83;;
31033;SDS011;59145;49.342;7.022;2022-09-17T12:16:55;4.05;;;1.48;;
31033;SDS011;59145;49.342;7.022;2022-09-17T12:19:21;6.63;;;2.00;;
31033;SDS011;59145;49.342;7.022;2022-09-17T12:21:50;3.35;;;1.95;;
31033;SDS011;59145;49.342;7.022;2022-09-17T12:24:19;6.70;;;1.83;;
31033;SDS011;59145;49.342;7.022;2022-09-17T12:26:50;3.00;;;1.75;;
31033;SDS011;59145;49.342;7.022;2022-09-17T12:29:20;3.35;;;1.60;;
31033;SDS011;59145;49.342;7.022;2022-09-17T12:31:49;3.05;;;1.50;;
31033;SDS011;59145;49.342;7.022;2022-09-17T12:34:22;2.58;;;1.48;;
31033;SDS011;59145;49.342;7.022;2022-09-17T12:36:51;2.65;;;1.60;;
31033;SDS011;59145;49.342;7.022;2022-09-17T12:39:41;2.65;;;1.40;;
31033;SDS011;59145;49.342;7.022;2022-09-17T12:42:13;2.25;;;1.33;;
31033;SDS011;59145;49.342;7.022;2022-09-17T12:44:47;1.95;;;1.50;;
31033;SDS011;59145;49.342;7.022;2022-09-17T12:47:19;1.77;;;1.40;;
31033;SDS011;59145;49.342;7.022;2022-09-17T12:49:56;1.90;;;1.33;;
31033;SDS011;59145;49.342;7.022;2022-09-17T12:52:26;3.17;;;1.65;;
31033;SDS011;59145;49.342;7.022;2022-09-17T12:57:37;3.33;;;1.80;;
31033;SDS011;59145;49.342;7.022;2022-09-17T13:00:07;2.17;;;1.70;;
31033;SDS011;59145;49.342;7.022;2022-09-17T13:02:35;1.98;;;1.63;;
31033;SDS011;59145;49.342;7.022;2022-09-17T13:05:10;2.75;;;1.80;;
31033;SDS011;59145;49.342;7.022;2022-09-17T13:07:48;2.10;;;1.80;;
31033;SDS011;59145;49.342;7.022;2022-09-17T13:10:20;2.97;;;1.67;;
31033;SDS011;59145;49.342;7.022;2022-09-17T13:12:51;1.73;;;1.40;;
31033;SDS011;59145;49.342;7.022;2022-09-17T13:15:26;1.67;;;1.52;;
31033;SDS011;59145;49.342;7.022;2022-09-17T13:17:55;1.92;;;1.20;;
31033;SDS011;59145;49.342;7.022;2022-09-17T13:20:23;2.08;;;1.40;;
31033;SDS011;59145;49.342;7.022;2022-09-17T13:22:51;2.83;;;1.50;;
31033;SDS011;59145;49.342;7.022;2022-09-17T13:25:18;1.35;;;1.17;;
31033;SDS011;59145;49.342;7.022;2022-09-17T13:27:44;2.35;;;1.33;;
31033;SDS011;59145;49.342;7.022;2022-09-17T13:30:11;1.10;;;1.00;;
31033;SDS011;59145;49.342;7.022;2022-09-17T13:38:11;4.50;;;1.15;;
31033;SDS011;59145;49.342;7.022;2022-09-17T13:40:37;2.38;;;1.05;;
31033;SDS011;59145;49.342;7.022;2022-09-17T13:43:04;1.40;;;1.00;;
31033;SDS011;59145;49.342;7.022;2022-09-17T13:45:33;2.13;;;1.08;;
31033;SDS011;59145;49.342;7.022;2022-09-17T13:47:59;2.40;;;1.20;;
31033;SDS011;59145;49.342;7.022;2022-09-17T13:50:27;4.20;;;1.10;;
31033;SDS011;59145;49.342;7.022;2022-09-17T13:52:52;2.15;;;1.20;;
31033;SDS011;59145;49.342;7.022;2022-09-17T13:55:29;1.88;;;1.10;;
31033;SDS011;59145;49.342;7.022;2022-09-17T13:57:55;4.22;;;1.08;;
31033;SDS011;59145;49.342;7.022;2022-09-17T14:05:47;3.10;;;1.20;;
31033;SDS011;59145;49.342;7.022;2022-09-17T14:08:23;1.67;;;0.82;;
31033;SDS011;59145;49.342;7.022;2022-09-17T14:10:52;1.13;;;1.00;;
31033;SDS011;59145;49.342;7.022;2022-09-17T14:13:37;0.80;;;0.80;;
31033;SDS011;59145;49.342;7.022;2022-09-17T14:16:20;3.75;;;1.17;;
31033;SDS011;59145;49.342;7.022;2022-09-17T14:18:57;2.25;;;1.10;;
31033;SDS011;59145;49.342;7.022;2022-09-17T14:21:26;2.88;;;1.10;;
31033;SDS011;59145;49.342;7.022;2022-09-17T14:23:54;2.35;;;0.98;;
31033;SDS011;59145;49.342;7.022;2022-09-17T14:26:24;2.80;;;1.00;;
31033;SDS011;59145;49.342;7.022;2022-09-17T14:28:54;1.52;;;1.20;;
31033;SDS011;59145;49.342;7.022;2022-09-17T14:31:23;1.10;;;1.05;;
31033;SDS011;59145;49.342;7.022;2022-09-17T14:33:51;1.33;;;0.93;;
31033;SDS011;59145;49.342;7.022;2022-09-17T14:36:17;1.02;;;0.95;;
31033;SDS011;59145;49.342;7.022;2022-09-17T14:38:44;1.70;;;0.90;;
31033;SDS011;59145;49.342;7.022;2022-09-17T14:41:16;3.22;;;1.00;;
31033;SDS011;59145;49.342;7.022;2022-09-17T14:43:44;1.33;;;1.10;;
31033;SDS011;59145;49.342;7.022;2022-09-17T14:46:13;1.08;;;1.02;;
31033;SDS011;59145;49.342;7.022;2022-09-17T14:48:40;2.03;;;1.10;;
31033;SDS011;59145;49.342;7.022;2022-09-17T14:51:25;1.37;;;1.07;;
31033;SDS011;59145;49.342;7.022;2022-09-17T14:56:56;1.75;;;1.10;;
31033;SDS011;59145;49.342;7.022;2022-09-17T14:59:28;1.50;;;1.05;;
31033;SDS011;59145;49.342;7.022;2022-09-17T15:01:55;1.25;;;1.00;;
31033;SDS011;59145;49.342;7.022;2022-09-17T15:04:21;1.95;;;1.17;;
31033;SDS011;59145;49.342;7.022;2022-09-17T15:06:46;1.98;;;1.30;;
31033;SDS011;59145;49.342;7.022;2022-09-17T15:09:13;1.57;;;1.10;;
31033;SDS011;59145;49.342;7.022;2022-09-17T15:11:39;1.52;;;1.02;;
31033;SDS011;59145;49.342;7.022;2022-09-17T15:14:07;2.08;;;1.02;;